Kalamazoo, Michigan
Current Conditions -  °F | °C
As of 1:53 AM on Saturday 25 Oct 2014 (Local Time) from KAZO Reporting Station
Haze Haze  
Wind Chill: 47°   Ceiling: 11000
Heat Index: 49°   Visibility: 3mi
Dew Point: 47°   Wind: 6mph
Humidity: 93%   Direction: 180°S
Pressure: 29.93"   Gusts: NA
Location:  42.29°N, 85.6°W
Report Text: KAZO 250553Z AUTO 18005KT 3SM BR FEW080 BKN110 09/08 A2993 RMK AO2 SLP137 T00940083 10117 20061 56008
Loading
Personal Weather Stations






























Interactive Weather Map
Tropical Storm Tracking
New forecast layout! Learn more

10-Day Weather Forecast

Advertisements
Track Severe Weather on mobile